Time;durP1;ratioP1;P1;durP2;ratioP2;P2;SDS_P1;SDS_P2;PMS_P1;PMS_P2;Temp;Humidity;BMP_temperature;BMP_pressure;BME280_temperature;BME280_humidity;BME280_pressure;Samples;Min_cycle;Max_cycle;Signal;HPM_P1;HPM_P2
2022/07/23 00:02:33;;;;;;;0.93;0.93;;;;;;;;;;5059037;28;20210;-62
2022/07/23 00:05:20;;;;;;;1.30;1.20;;;;;;;;;;5055934;28;20270;-59
2022/07/23 00:08:07;;;;;;;1.67;1.57;;;;;;;;;;5056970;28;20200;-59
2022/07/23 00:10:54;;;;;;;1.60;1.50;;;;;;;;;;5055103;28;20239;-59
2022/07/23 00:13:42;;;;;;;1.70;1.60;;;;;;;;;;5059823;28;20503;-59
2022/07/23 00:16:29;;;;;;;1.40;1.30;;;;;;;;;;5054113;28;20303;-59
2022/07/23 00:19:17;;;;;;;1.50;1.40;;;;;;;;;;5057615;28;20230;-59
2022/07/23 00:22:04;;;;;;;1.37;1.27;;;;;;;;;;5057887;28;20307;-60
2022/07/23 00:24:51;;;;;;;1.40;1.30;;;;;;;;;;5061037;28;20288;-59
2022/07/23 00:27:38;;;;;;;1.27;1.27;;;;;;;;;;5061033;28;20234;-59
2022/07/23 00:30:26;;;;;;;1.33;1.30;;;;;;;;;;5064045;28;20363;-59
2022/07/23 00:33:13;;;;;;;1.37;1.27;;;;;;;;;;5056265;28;20286;-59
2022/07/23 00:36:01;;;;;;;2.27;1.37;;;;;;;;;;5063461;28;20254;-59
2022/07/23 00:38:48;;;;;;;1.13;1.03;;;;;;;;;;5064479;28;20230;-59
2022/07/23 00:41:35;;;;;;;1.40;1.30;;;;;;;;;;5056481;28;20207;-60
2022/07/23 00:44:24;;;;;;;1.53;1.43;;;;;;;;;;5059091;28;20214;-59
2022/07/23 00:47:11;;;;;;;1.60;1.50;;;;;;;;;;5057301;28;20627;-59
2022/07/23 00:49:58;;;;;;;1.20;1.10;;;;;;;;;;5056085;28;20202;-59
2022/07/23 00:52:47;;;;;;;1.23;1.23;;;;;;;;;;5054751;28;20212;-59
2022/07/23 00:55:34;;;;;;;1.27;1.27;;;;;;;;;;5063848;28;20211;-59
2022/07/23 00:58:21;;;;;;;1.40;1.30;;;;;;;;;;5058995;28;20702;-58
2022/07/23 01:01:09;;;;;;;1.90;1.50;;;;;;;;;;5064855;28;20295;-63
2022/07/23 01:03:56;;;;;;;1.47;1.37;;;;;;;;;;5066176;28;20719;-64
2022/07/23 01:06:44;;;;;;;1.23;1.20;;;;;;;;;;5057607;28;20258;-63
2022/07/23 01:09:32;;;;;;;1.40;1.30;;;;;;;;;;5066611;28;20210;-63
2022/07/23 01:12:19;;;;;;;1.50;1.40;;;;;;;;;;5063933;28;20209;-65
2022/07/23 01:15:07;;;;;;;1.50;1.40;;;;;;;;;;5060703;28;20229;-64
2022/07/23 01:17:54;;;;;;;1.70;1.60;;;;;;;;;;5060176;28;20656;-64
2022/07/23 01:20:41;;;;;;;1.37;1.30;;;;;;;;;;5056545;28;20288;-63
2022/07/23 01:23:29;;;;;;;1.50;1.40;;;;;;;;;;5058184;28;20236;-64
2022/07/23 01:26:17;;;;;;;1.97;1.77;;;;;;;;;;5059002;28;20198;-64
2022/07/23 01:29:04;;;;;;;1.43;1.30;;;;;;;;;;5061826;28;20209;-64
2022/07/23 01:31:51;;;;;;;1.47;1.40;;;;;;;;;;5054156;28;20553;-62
2022/07/23 01:34:39;;;;;;;2.93;1.67;;;;;;;;;;5062996;28;20211;-63
2022/07/23 01:37:26;;;;;;;1.50;1.40;;;;;;;;;;5059336;28;20283;-64
2022/07/23 01:40:14;;;;;;;1.37;1.27;;;;;;;;;;5060920;28;20696;-64
2022/07/23 01:43:01;;;;;;;1.50;1.40;;;;;;;;;;5058193;28;20213;-64
2022/07/23 01:45:48;;;;;;;1.57;1.47;;;;;;;;;;5055877;28;20217;-64
2022/07/23 01:48:35;;;;;;;1.53;1.30;;;;;;;;;;5058942;28;20544;-63
2022/07/23 01:51:22;;;;;;;1.23;1.13;;;;;;;;;;5059335;28;20299;-64
2022/07/23 01:54:09;;;;;;;1.20;1.20;;;;;;;;;;5063521;28;20263;-63
2022/07/23 01:56:59;;;;;;;2.10;1.63;;;;;;;;;;5062914;28;20206;-63
2022/07/23 01:59:45;;;;;;;1.80;1.60;;;;;;;;;;5059796;28;20713;-64
2022/07/23 02:02:32;;;;;;;1.70;1.60;;;;;;;;;;5060888;28;20212;-63
2022/07/23 02:05:19;;;;;;;1.47;1.30;;;;;;;;;;5060540;28;20607;-62
2022/07/23 02:08:06;;;;;;;1.50;1.40;;;;;;;;;;5059402;28;20207;-64
2022/07/23 02:10:53;;;;;;;1.50;1.40;;;;;;;;;;5056039;28;20288;-64
2022/07/23 02:13:42;;;;;;;1.17;1.17;;;;;;;;;;5057062;28;20207;-64
2022/07/23 02:16:29;;;;;;;1.40;1.30;;;;;;;;;;5065389;28;20236;-63
2022/07/23 02:19:16;;;;;;;1.10;1.10;;;;;;;;;;5060622;28;20229;-63
2022/07/23 02:22:03;;;;;;;1.53;1.43;;;;;;;;;;5057277;28;20244;-64
2022/07/23 02:24:50;;;;;;;1.43;1.40;;;;;;;;;;5058180;28;20596;-64
2022/07/23 02:27:37;;;;;;;1.90;1.43;;;;;;;;;;5058470;28;20315;-64
2022/07/23 02:30:26;;;;;;;1.30;1.20;;;;;;;;;;5059862;28;20202;-62
2022/07/23 02:33:13;;;;;;;1.50;1.40;;;;;;;;;;5061908;28;20242;-64
2022/07/23 02:36:00;;;;;;;1.43;1.33;;;;;;;;;;5059554;28;20213;-63
2022/07/23 02:38:47;;;;;;;1.73;1.63;;;;;;;;;;5059929;28;20225;-65
2022/07/23 02:41:33;;;;;;;1.50;1.40;;;;;;;;;;5056296;28;20216;-64
2022/07/23 02:44:20;;;;;;;1.53;1.43;;;;;;;;;;5059174;28;20203;-63
2022/07/23 02:47:09;;;;;;;1.40;1.30;;;;;;;;;;5061158;28;20283;-63
2022/07/23 02:49:56;;;;;;;1.60;1.50;;;;;;;;;;5061064;28;20812;-64
2022/07/23 02:52:43;;;;;;;1.20;1.20;;;;;;;;;;5051914;28;20267;-64
2022/07/23 02:55:30;;;;;;;1.40;1.40;;;;;;;;;;5054057;28;20211;-64
2022/07/23 02:58:17;;;;;;;1.43;1.33;;;;;;;;;;5057723;28;20679;-64
2022/07/23 03:01:05;;;;;;;1.70;1.60;;;;;;;;;;5055670;28;20286;-63
2022/07/23 03:03:53;;;;;;;1.67;1.57;;;;;;;;;;5058210;28;20206;-64
2022/07/23 03:06:40;;;;;;;1.60;1.50;;;;;;;;;;5059638;28;20230;-64
2022/07/23 03:09:27;;;;;;;1.30;1.30;;;;;;;;;;5060152;28;20613;-63
2022/07/23 03:12:14;;;;;;;1.40;1.30;;;;;;;;;;5058781;28;20240;-64
2022/07/23 03:15:01;;;;;;;1.80;1.70;;;;;;;;;;5059820;28;20608;-63
2022/07/23 03:17:48;;;;;;;1.10;1.10;;;;;;;;;;5058863;28;20196;-63
2022/07/23 03:20:36;;;;;;;1.53;1.43;;;;;;;;;;5060259;28;20288;-64
2022/07/23 03:23:23;;;;;;;1.50;1.40;;;;;;;;;;5055722;28;20258;-64
2022/07/23 03:26:10;;;;;;;1.70;1.60;;;;;;;;;;5056990;28;20570;-64
2022/07/23 03:28:57;;;;;;;1.53;1.43;;;;;;;;;;5061457;28;20206;-64
2022/07/23 03:31:44;;;;;;;1.30;1.20;;;;;;;;;;5056735;28;20580;-63
2022/07/23 03:34:31;;;;;;;1.50;1.40;;;;;;;;;;5062255;28;20302;-64
2022/07/23 03:37:20;;;;;;;1.43;1.33;;;;;;;;;;5058361;28;20283;-64
2022/07/23 03:40:08;;;;;;;1.53;1.43;;;;;;;;;;5057516;28;20700;-64
2022/07/23 03:42:55;;;;;;;1.60;1.33;;;;;;;;;;5058739;28;20210;-64
2022/07/23 03:45:42;;;;;;;1.40;1.30;;;;;;;;;;5057635;28;20258;-64
2022/07/23 03:48:29;;;;;;;1.40;1.30;;;;;;;;;;5060409;28;20228;-63
2022/07/23 03:51:16;;;;;;;1.50;1.40;;;;;;;;;;5059953;28;20220;-63
2022/07/23 03:54:04;;;;;;;1.30;1.20;;;;;;;;;;5054705;28;20351;-64
2022/07/23 03:56:51;;;;;;;1.63;1.53;;;;;;;;;;5059141;28;20566;-67
2022/07/23 03:59:38;;;;;;;1.40;1.30;;;;;;;;;;5067807;28;20270;-63
2022/07/23 04:02:25;;;;;;;1.73;1.63;;;;;;;;;;5059507;28;20605;-64
2022/07/23 04:05:12;;;;;;;1.93;1.23;;;;;;;;;;5062886;28;20218;-64
2022/07/23 04:07:59;;;;;;;1.63;1.50;;;;;;;;;;5061360;28;20217;-64
2022/07/23 04:10:48;;;;;;;2.17;1.50;;;;;;;;;;5061317;28;20198;-63
2022/07/23 04:13:35;;;;;;;1.50;1.40;;;;;;;;;;5064610;28;20339;-64
2022/07/23 04:16:22;;;;;;;1.50;1.40;;;;;;;;;;5059991;28;20656;-63
2022/07/23 04:19:09;;;;;;;1.20;1.10;;;;;;;;;;5059738;28;20269;-64
2022/07/23 04:21:55;;;;;;;1.23;1.13;;;;;;;;;;5059462;28;20333;-63
2022/07/23 04:24:42;;;;;;;1.30;1.30;;;;;;;;;;5061058;28;20266;-64
2022/07/23 04:27:33;;;;;;;2.30;1.50;;;;;;;;;;5060680;28;20684;-63
2022/07/23 04:30:20;;;;;;;1.37;1.27;;;;;;;;;;5063638;28;20207;-64
2022/07/23 04:33:07;;;;;;;1.30;1.20;;;;;;;;;;5061644;28;20259;-63
2022/07/23 04:35:54;;;;;;;0.90;0.90;;;;;;;;;;5066862;28;20207;-63
2022/07/23 04:38:41;;;;;;;1.00;1.00;;;;;;;;;;5061518;28;20207;-65
2022/07/23 04:41:28;;;;;;;1.13;1.13;;;;;;;;;;5056665;28;20209;-64
2022/07/23 04:44:16;;;;;;;1.07;1.07;;;;;;;;;;5060861;28;20225;-64
2022/07/23 04:47:03;;;;;;;1.27;1.17;;;;;;;;;;5067720;28;20215;-64
2022/07/23 04:49:50;;;;;;;1.00;0.87;;;;;;;;;;5059900;28;20658;-64
2022/07/23 04:52:37;;;;;;;1.17;1.08;;;;;;;;;;5057085;28;20248;-64
2022/07/23 04:55:24;;;;;;;1.23;1.13;;;;;;;;;;5065678;28;20213;-63
2022/07/23 04:58:11;;;;;;;1.00;1.00;;;;;;;;;;5062659;28;20210;-64
2022/07/23 05:01:00;;;;;;;1.33;1.02;;;;;;;;;;5064684;28;20719;-63
2022/07/23 05:03:48;;;;;;;1.40;1.30;;;;;;;;;;5063925;28;20209;-64
2022/07/23 05:06:35;;;;;;;1.05;1.05;;;;;;;;;;5064608;28;20230;-64
2022/07/23 05:09:22;;;;;;;1.23;1.15;;;;;;;;;;5056620;28;20578;-64
2022/07/23 05:12:09;;;;;;;0.90;0.90;;;;;;;;;;5055900;28;20737;-63
2022/07/23 05:14:56;;;;;;;0.90;0.90;;;;;;;;;;5064173;28;20232;-64
2022/07/23 05:17:44;;;;;;;0.90;0.90;;;;;;;;;;5063436;28;20298;-64
2022/07/23 05:20:31;;;;;;;1.10;1.08;;;;;;;;;;5059508;28;20234;-63
2022/07/23 05:23:18;;;;;;;0.73;0.73;;;;;;;;;;5060196;28;20710;-64
2022/07/23 05:26:05;;;;;;;0.65;0.65;;;;;;;;;;5060212;28;20201;-60
2022/07/23 05:28:52;;;;;;;0.75;0.75;;;;;;;;;;5064562;28;20217;-63
2022/07/23 05:31:40;;;;;;;1.00;0.90;;;;;;;;;;5057776;28;20203;-64
2022/07/23 05:34:28;;;;;;;0.60;0.60;;;;;;;;;;5057498;28;20213;-64
2022/07/23 05:37:15;;;;;;;0.80;0.80;;;;;;;;;;5063036;28;20211;-64
2022/07/23 05:40:06;;;;;;;0.70;0.70;;;;;;;;;;4954884;28;20243;-62
2022/07/23 05:42:52;;;;;;;0.70;0.70;;;;;;;;;;4820687;28;20207;-62
2022/07/23 05:45:39;;;;;;;0.70;0.70;;;;;;;;;;4939801;28;20245;-63
2022/07/23 05:48:26;;;;;;;0.65;0.65;;;;;;;;;;4986996;28;20216;-64
2022/07/23 05:51:15;;;;;;;0.80;0.80;;;;;;;;;;4981160;28;20206;-62
2022/07/23 05:54:02;;;;;;;0.73;0.73;;;;;;;;;;4985172;28;20212;-64
2022/07/23 05:56:50;;;;;;;0.50;0.50;;;;;;;;;;4987058;28;20200;-64
2022/07/23 05:59:37;;;;;;;0.68;0.60;;;;;;;;;;4984592;28;20274;-67
2022/07/23 06:02:24;;;;;;;0.57;0.57;;;;;;;;;;4982334;28;20597;-63
2022/07/23 06:05:11;;;;;;;0.60;0.60;;;;;;;;;;4987076;28;20568;-63
2022/07/23 06:07:59;;;;;;;0.63;0.63;;;;;;;;;;4986159;28;20330;-63
2022/07/23 06:10:46;;;;;;;0.70;0.70;;;;;;;;;;4982116;28;20208;-64
2022/07/23 06:13:33;;;;;;;0.67;0.67;;;;;;;;;;4981825;28;20614;-64
2022/07/23 06:16:20;;;;;;;0.70;0.70;;;;;;;;;;4985876;28;20282;-63
2022/07/23 06:19:07;;;;;;;0.55;0.55;;;;;;;;;;4982660;28;20267;-64
2022/07/23 06:21:54;;;;;;;0.50;0.50;;;;;;;;;;4981724;28;20317;-63
2022/07/23 06:24:42;;;;;;;0.60;0.60;;;;;;;;;;4987017;28;20307;-63
2022/07/23 06:27:29;;;;;;;0.50;0.50;;;;;;;;;;4981323;28;20216;-63
2022/07/23 06:30:17;;;;;;;0.47;0.47;;;;;;;;;;4977907;28;20216;-63
2022/07/23 06:33:04;;;;;;;0.40;0.40;;;;;;;;;;4980742;28;20230;-64
2022/07/23 06:35:50;;;;;;;0.55;0.55;;;;;;;;;;4985537;28;20254;-64
2022/07/23 06:38:37;;;;;;;0.50;0.50;;;;;;;;;;4982975;28;20271;-64
2022/07/23 06:41:26;;;;;;;0.63;0.63;;;;;;;;;;4982485;28;20217;-65
2022/07/23 06:44:13;;;;;;;0.50;0.50;;;;;;;;;;4984977;28;20208;-64
2022/07/23 06:47:00;;;;;;;0.50;0.50;;;;;;;;;;4981563;28;20627;-64
2022/07/23 06:49:47;;;;;;;0.37;0.30;;;;;;;;;;4981783;28;20279;-63
2022/07/23 06:52:33;;;;;;;0.50;0.50;;;;;;;;;;4978970;28;20211;-63
2022/07/23 06:55:20;;;;;;;0.40;0.40;;;;;;;;;;4979808;28;20213;-64
2022/07/23 06:58:09;;;;;;;0.52;0.52;;;;;;;;;;4976384;28;20742;-63
2022/07/23 07:00:57;;;;;;;1.25;0.40;;;;;;;;;;4977480;28;20241;-63
2022/07/23 07:03:44;;;;;;;0.40;0.40;;;;;;;;;;4978541;28;20631;-63
2022/07/23 07:06:31;;;;;;;0.35;0.35;;;;;;;;;;4986388;28;20338;-63
2022/07/23 07:09:18;;;;;;;0.32;0.32;;;;;;;;;;4983238;28;20789;-63
2022/07/23 07:12:06;;;;;;;0.40;0.40;;;;;;;;;;4984900;28;20234;-63
2022/07/23 07:14:54;;;;;;;0.40;0.40;;;;;;;;;;4984493;28;20215;-63
2022/07/23 07:17:42;;;;;;;0.30;0.30;;;;;;;;;;4980986;28;20206;-63
2022/07/23 07:20:29;;;;;;;0.60;0.60;;;;;;;;;;4983510;28;20229;-64
2022/07/23 07:23:16;;;;;;;0.30;0.30;;;;;;;;;;4986242;28;20742;-63
2022/07/23 07:26:02;;;;;;;0.38;0.38;;;;;;;;;;4981491;28;20205;-63
2022/07/23 07:28:49;;;;;;;0.35;0.35;;;;;;;;;;4980112;28;20243;-63
2022/07/23 07:31:38;;;;;;;0.57;0.57;;;;;;;;;;4980703;28;20292;-63
2022/07/23 07:34:25;;;;;;;0.40;0.40;;;;;;;;;;4986338;28;20215;-63
2022/07/23 07:37:12;;;;;;;0.30;0.30;;;;;;;;;;4984363;28;20213;-63
2022/07/23 07:39:59;;;;;;;0.30;0.30;;;;;;;;;;4978636;28;20201;-62
2022/07/23 07:42:47;;;;;;;0.20;0.20;;;;;;;;;;4986969;28;20748;-63
2022/07/23 07:45:34;;;;;;;0.30;0.30;;;;;;;;;;4989429;28;20228;-64
2022/07/23 07:48:22;;;;;;;0.40;0.40;;;;;;;;;;4985901;28;20213;-63
2022/07/23 07:51:09;;;;;;;0.45;0.45;;;;;;;;;;4982882;28;20209;-63
2022/07/23 07:53:56;;;;;;;0.30;0.30;;;;;;;;;;4986927;28;20224;-63
2022/07/23 07:56:43;;;;;;;0.40;0.40;;;;;;;;;;4984427;28;20303;-63
2022/07/23 07:59:30;;;;;;;0.35;0.35;;;;;;;;;;4986932;28;20207;-63
2022/07/23 08:02:17;;;;;;;0.30;0.30;;;;;;;;;;4989685;28;20212;-63
2022/07/23 08:05:07;;;;;;;0.40;0.40;;;;;;;;;;4985040;28;20233;-63
2022/07/23 08:07:54;;;;;;;0.30;0.30;;;;;;;;;;4991781;28;20675;-63
2022/07/23 08:10:41;;;;;;;0.30;0.30;;;;;;;;;;4982799;28;20606;-63
2022/07/23 08:13:28;;;;;;;0.55;0.30;;;;;;;;;;4985172;28;20743;-63
2022/07/23 08:16:15;;;;;;;0.28;0.28;;;;;;;;;;4981157;28;20204;-63
2022/07/23 08:19:02;;;;;;;0.30;0.30;;;;;;;;;;4986623;28;20205;-63
2022/07/23 08:21:51;;;;;;;0.45;0.45;;;;;;;;;;4984461;28;20614;-63
2022/07/23 08:24:38;;;;;;;0.30;0.30;;;;;;;;;;4986344;28;20209;-63
2022/07/23 08:27:25;;;;;;;0.40;0.40;;;;;;;;;;4985869;28;20201;-63
2022/07/23 08:30:12;;;;;;;0.43;0.43;;;;;;;;;;4985596;28;20308;-63
2022/07/23 08:33:00;;;;;;;0.35;0.35;;;;;;;;;;4985220;28;20216;-63
2022/07/23 08:35:49;;;;;;;0.20;0.20;;;;;;;;;;4980670;28;20574;-63
2022/07/23 08:38:38;;;;;;;0.20;0.20;;;;;;;;;;4982477;28;20205;-63
2022/07/23 08:41:25;;;;;;;0.32;0.32;;;;;;;;;;4986313;28;20222;-63
2022/07/23 08:44:13;;;;;;;0.20;0.20;;;;;;;;;;4980656;28;20218;-65
2022/07/23 08:47:00;;;;;;;0.30;0.30;;;;;;;;;;4982531;28;20296;-64
2022/07/23 08:49:47;;;;;;;0.22;0.20;;;;;;;;;;4977978;28;20601;-64
2022/07/23 08:52:35;;;;;;;0.30;0.30;;;;;;;;;;4984605;28;20690;-64
2022/07/23 08:55:24;;;;;;;0.20;0.20;;;;;;;;;;4987178;28;20747;-64
2022/07/23 08:58:10;;;;;;;0.32;0.32;;;;;;;;;;4986462;28;20201;-64
2022/07/23 09:00:58;;;;;;;0.20;0.20;;;;;;;;;;4989277;28;20324;-63
2022/07/23 09:03:45;;;;;;;0.30;0.30;;;;;;;;;;4984502;28;20210;-64
2022/07/23 09:06:33;;;;;;;0.40;0.40;;;;;;;;;;4982604;28;20632;-63
2022/07/23 09:09:21;;;;;;;0.43;0.30;;;;;;;;;;4986250;28;20217;-64
2022/07/23 09:12:11;;;;;;;0.28;0.28;;;;;;;;;;4986858;28;20227;-62
2022/07/23 09:15:06;;;;;;;0.22;0.22;;;;;;;;;;4984013;28;20206;-64
2022/07/23 09:17:53;;;;;;;0.30;0.30;;;;;;;;;;4986502;28;20643;-64
2022/07/23 09:20:40;;;;;;;0.20;0.20;;;;;;;;;;4985029;28;20286;-63
2022/07/23 09:23:37;;;;;;;0.17;0.17;;;;;;;;;;4980353;28;20705;-63
2022/07/23 09:26:36;;;;;;;0.35;0.35;;;;;;;;;;4984957;28;20265;-63
2022/07/23 09:29:26;;;;;;;0.20;0.20;;;;;;;;;;4980411;28;20213;-63
2022/07/23 09:32:14;;;;;;;0.22;0.22;;;;;;;;;;4982057;28;20588;-63
2022/07/23 09:35:01;;;;;;;0.25;0.25;;;;;;;;;;4986138;28;20666;-64
2022/07/23 09:38:02;;;;;;;0.20;0.20;;;;;;;;;;4984782;28;20654;-63
2022/07/23 09:41:06;;;;;;;0.40;0.40;;;;;;;;;;4978862;28;20262;-63
2022/07/23 09:43:57;;;;;;;0.20;0.20;;;;;;;;;;4981483;28;20693;-64
2022/07/23 09:46:47;;;;;;;0.32;0.28;;;;;;;;;;4982365;28;20241;-63
2022/07/23 09:49:34;;;;;;;1.17;0.30;;;;;;;;;;4985691;28;20732;-64
2022/07/23 09:52:27;;;;;;;0.30;0.30;;;;;;;;;;4982263;28;20226;-61
2022/07/23 09:55:14;;;;;;;0.20;0.20;;;;;;;;;;4983003;28;20691;-63
2022/07/23 09:58:02;;;;;;;0.20;0.20;;;;;;;;;;4982960;28;20210;-61
2022/07/23 10:00:50;;;;;;;0.20;0.15;;;;;;;;;;4985578;28;20242;-61
2022/07/23 10:03:38;;;;;;;0.30;0.30;;;;;;;;;;4984795;28;20221;-61
2022/07/23 10:06:26;;;;;;;0.20;0.20;;;;;;;;;;4986440;28;20238;-60
2022/07/23 10:09:22;;;;;;;0.20;0.20;;;;;;;;;;4981541;28;20207;-61
2022/07/23 10:12:17;;;;;;;0.10;0.10;;;;;;;;;;4985251;28;20209;-61
2022/07/23 10:15:04;;;;;;;0.20;0.20;;;;;;;;;;4985682;28;20221;-61
2022/07/23 10:17:51;;;;;;;0.22;0.22;;;;;;;;;;4978489;28;20207;-60
2022/07/23 10:20:41;;;;;;;0.13;0.13;;;;;;;;;;4981294;28;20223;-60
2022/07/23 10:23:35;;;;;;;0.30;0.30;;;;;;;;;;4980786;28;20293;-61
2022/07/23 10:26:30;;;;;;;0.75;0.20;;;;;;;;;;4979804;28;20210;-60
2022/07/23 10:29:28;;;;;;;0.30;0.30;;;;;;;;;;4980430;28;20209;-61
2022/07/23 10:32:26;;;;;;;0.20;0.20;;;;;;;;;;4980870;28;20214;-61
2022/07/23 10:35:38;;;;;;;0.10;0.10;;;;;;;;;;4980026;28;20201;-61
2022/07/23 10:38:30;;;;;;;0.15;0.15;;;;;;;;;;4984254;28;20692;-61
2022/07/23 10:41:32;;;;;;;0.20;0.20;;;;;;;;;;4982992;28;20700;-61
2022/07/23 10:44:22;;;;;;;0.20;0.20;;;;;;;;;;4978739;28;20520;-63
2022/07/23 10:50:22;;;;;;;0.47;0.30;;;;;;;;;;4981795;28;20216;-61
2022/07/23 10:53:11;;;;;;;0.32;0.10;;;;;;;;;;4981538;28;20685;-61
2022/07/23 10:55:59;;;;;;;0.28;0.28;;;;;;;;;;4978375;28;20806;-61
2022/07/23 10:58:48;;;;;;;0.13;0.13;;;;;;;;;;4983718;28;20574;-61
2022/07/23 11:01:37;;;;;;;0.30;0.30;;;;;;;;;;4976071;28;20235;-61
2022/07/23 11:04:52;;;;;;;0.50;0.20;;;;;;;;;;4980560;28;20210;-60
2022/07/23 11:08:19;;;;;;;0.20;0.20;;;;;;;;;;4980037;28;20262;-61
2022/07/23 11:11:12;;;;;;;0.20;0.20;;;;;;;;;;4977582;28;20686;-61
2022/07/23 11:13:59;;;;;;;0.20;0.20;;;;;;;;;;4981044;28;20213;-61
2022/07/23 11:16:48;;;;;;;0.10;0.10;;;;;;;;;;4984695;28;20203;-61
2022/07/23 11:20:08;;;;;;;0.20;0.20;;;;;;;;;;4983402;28;20695;-61
2022/07/23 11:22:57;;;;;;;0.45;0.22;;;;;;;;;;4982207;28;20706;-61
2022/07/23 11:25:44;;;;;;;0.28;0.25;;;;;;;;;;4977866;28;20297;-61
2022/07/23 11:28:32;;;;;;;0.30;0.30;;;;;;;;;;4987654;28;20213;-61
2022/07/23 11:31:19;;;;;;;1.10;0.10;;;;;;;;;;4983490;28;20396;-61
2022/07/23 11:34:31;;;;;;;0.17;0.17;;;;;;;;;;4979887;28;20211;-61
2022/07/23 11:37:32;;;;;;;0.20;0.20;;;;;;;;;;4979957;28;20301;-60
2022/07/23 11:40:19;;;;;;;0.20;0.20;;;;;;;;;;4981607;28;20685;-61
2022/07/23 11:43:07;;;;;;;0.22;0.22;;;;;;;;;;4983392;28;20218;-60
2022/07/23 11:45:59;;;;;;;0.20;0.20;;;;;;;;;;4981265;28;20209;-61
2022/07/23 11:48:46;;;;;;;0.28;0.28;;;;;;;;;;4978344;28;20207;-61
2022/07/23 11:51:33;;;;;;;0.10;0.10;;;;;;;;;;4980575;28;20202;-61
2022/07/23 11:54:20;;;;;;;0.20;0.20;;;;;;;;;;4979794;28;20621;-61
2022/07/23 11:57:07;;;;;;;0.22;0.22;;;;;;;;;;4982344;28;20254;-61
2022/07/23 11:59:56;;;;;;;0.20;0.20;;;;;;;;;;4974040;28;20271;-60
2022/07/23 12:02:47;;;;;;;0.20;0.20;;;;;;;;;;4981446;28;20321;-61
2022/07/23 12:05:36;;;;;;;0.20;0.20;;;;;;;;;;4986472;28;20230;-61
2022/07/23 12:08:23;;;;;;;0.30;0.20;;;;;;;;;;4982398;28;20831;-61
2022/07/23 12:11:13;;;;;;;0.20;0.20;;;;;;;;;;4976082;28;20198;-61
2022/07/23 12:14:01;;;;;;;0.32;0.10;;;;;;;;;;4981314;28;20213;-61
2022/07/23 12:16:48;;;;;;;0.20;0.20;;;;;;;;;;4978526;28;20207;-62
2022/07/23 12:19:36;;;;;;;0.10;0.10;;;;;;;;;;4982589;28;20658;-61
2022/07/23 12:22:25;;;;;;;0.20;0.20;;;;;;;;;;4985965;28;20615;-60
2022/07/23 12:25:14;;;;;;;0.30;0.30;;;;;;;;;;4983204;28;20211;-63
2022/07/23 12:28:04;;;;;;;0.30;0.30;;;;;;;;;;4987632;28;20212;-63
2022/07/23 12:30:53;;;;;;;0.20;0.20;;;;;;;;;;4986370;28;20274;-63
2022/07/23 12:33:41;;;;;;;0.20;0.20;;;;;;;;;;4987678;28;20245;-63
2022/07/23 12:36:40;;;;;;;0.10;0.10;;;;;;;;;;4983748;28;20693;-63
2022/07/23 12:39:31;;;;;;;0.15;0.15;;;;;;;;;;4982236;28;20297;-63
2022/07/23 12:42:18;;;;;;;0.20;0.20;;;;;;;;;;4980673;28;20290;-63
2022/07/23 12:45:11;;;;;;;0.10;0.10;;;;;;;;;;4987478;28;20206;-64
2022/07/23 12:48:05;;;;;;;0.30;0.17;;;;;;;;;;4982190;28;20217;-63
2022/07/23 12:50:55;;;;;;;0.10;0.10;;;;;;;;;;4984525;28;20214;-60
2022/07/23 12:53:44;;;;;;;0.10;0.10;;;;;;;;;;4977211;28;20293;-59
2022/07/23 12:56:34;;;;;;;0.20;0.20;;;;;;;;;;4982992;28;20223;-59
2022/07/23 12:59:21;;;;;;;0.10;0.10;;;;;;;;;;4978922;28;20698;-59
2022/07/23 13:02:10;;;;;;;0.30;0.20;;;;;;;;;;4984580;28;20617;-60
2022/07/23 13:04:57;;;;;;;0.20;0.20;;;;;;;;;;4984683;28;20224;-60
2022/07/23 13:07:44;;;;;;;0.10;0.10;;;;;;;;;;4980410;28;20213;-60
2022/07/23 13:10:33;;;;;;;0.20;0.20;;;;;;;;;;4988104;28;20810;-59
2022/07/23 13:13:22;;;;;;;0.30;0.30;;;;;;;;;;4985084;28;20194;-59
2022/07/23 13:16:10;;;;;;;0.22;0.22;;;;;;;;;;4987054;28;20212;-59
2022/07/23 13:18:57;;;;;;;0.10;0.10;;;;;;;;;;4984506;28;20563;-57
2022/07/23 13:21:45;;;;;;;0.20;0.20;;;;;;;;;;4980134;28;20237;-60
2022/07/23 13:24:32;;;;;;;0.10;0.10;;;;;;;;;;4979147;28;20218;-59
2022/07/23 13:27:20;;;;;;;0.20;0.20;;;;;;;;;;4984521;28;20666;-59
2022/07/23 13:30:10;;;;;;;0.10;0.10;;;;;;;;;;4981496;28;20681;-59
2022/07/23 13:32:57;;;;;;;0.20;0.20;;;;;;;;;;4981515;28;20212;-60
2022/07/23 13:35:44;;;;;;;0.13;0.10;;;;;;;;;;4986275;28;20207;-59
2022/07/23 13:38:31;;;;;;;0.20;0.20;;;;;;;;;;4984301;28;20690;-59
2022/07/23 13:41:19;;;;;;;0.20;0.20;;;;;;;;;;4985360;28;20210;-59
2022/07/23 13:44:07;;;;;;;0.20;0.20;;;;;;;;;;4984466;28;20210;-60
2022/07/23 13:46:54;;;;;;;0.35;0.30;;;;;;;;;;4980640;28;20206;-60
2022/07/23 13:49:41;;;;;;;0.55;0.30;;;;;;;;;;4979772;28;20202;-60
2022/07/23 13:52:28;;;;;;;0.20;0.20;;;;;;;;;;4985017;28;20233;-59
2022/07/23 13:55:15;;;;;;;0.20;0.20;;;;;;;;;;4981352;28;20205;-60
2022/07/23 13:58:03;;;;;;;0.20;0.20;;;;;;;;;;4986594;28;20265;-59
2022/07/23 14:00:53;;;;;;;0.10;0.10;;;;;;;;;;4984523;28;21076;-60
2022/07/23 14:03:40;;;;;;;0.20;0.20;;;;;;;;;;4985443;28;20238;-59
2022/07/23 14:06:27;;;;;;;0.30;0.30;;;;;;;;;;4980235;28;20229;-59
2022/07/23 14:09:14;;;;;;;0.25;0.25;;;;;;;;;;4982388;28;20240;-59
2022/07/23 14:12:01;;;;;;;0.25;0.25;;;;;;;;;;4985379;28;20197;-60
2022/07/23 14:14:48;;;;;;;0.15;0.15;;;;;;;;;;4980676;28;20206;-59
2022/07/23 14:17:37;;;;;;;0.22;0.22;;;;;;;;;;4985532;28;20205;-59
2022/07/23 14:20:25;;;;;;;0.20;0.20;;;;;;;;;;4982686;28;20203;-59
2022/07/23 14:23:12;;;;;;;0.13;0.13;;;;;;;;;;4986840;28;20241;-57
2022/07/23 14:25:58;;;;;;;0.38;0.38;;;;;;;;;;4986066;28;20204;-57
2022/07/23 14:28:45;;;;;;;0.63;0.20;;;;;;;;;;4981352;28;20199;-57
2022/07/23 14:31:34;;;;;;;0.28;0.28;;;;;;;;;;4981809;28;20241;-57
2022/07/23 14:34:22;;;;;;;0.22;0.22;;;;;;;;;;4984876;28;20212;-57
2022/07/23 14:37:11;;;;;;;0.20;0.20;;;;;;;;;;4984656;28;20291;-57
2022/07/23 14:39:58;;;;;;;0.43;0.30;;;;;;;;;;4985110;28;20287;-58
2022/07/23 14:42:45;;;;;;;0.20;0.20;;;;;;;;;;4980971;28;20222;-57
2022/07/23 14:45:32;;;;;;;0.30;0.30;;;;;;;;;;4985631;28;20725;-57
2022/07/23 14:48:19;;;;;;;0.30;0.30;;;;;;;;;;4987845;28;20211;-57
2022/07/23 14:51:07;;;;;;;0.20;0.20;;;;;;;;;;4982014;28;20220;-60
2022/07/23 14:53:54;;;;;;;0.55;0.35;;;;;;;;;;4980089;28;20214;-59
2022/07/23 14:56:42;;;;;;;0.40;0.40;;;;;;;;;;4980083;28;20207;-59
2022/07/23 14:59:30;;;;;;;0.20;0.20;;;;;;;;;;4982515;28;20211;-59
2022/07/23 15:02:17;;;;;;;0.20;0.20;;;;;;;;;;4981224;28;20225;-59
2022/07/23 15:05:04;;;;;;;0.22;0.22;;;;;;;;;;4984853;28;20774;-59
2022/07/23 15:07:52;;;;;;;0.30;0.30;;;;;;;;;;4981188;28;20210;-59
2022/07/23 15:10:40;;;;;;;0.40;0.40;;;;;;;;;;4978100;28;20670;-59
2022/07/23 15:13:26;;;;;;;0.28;0.28;;;;;;;;;;4982366;28;20223;-59
2022/07/23 15:16:14;;;;;;;0.22;0.22;;;;;;;;;;4982663;28;20272;-59
2022/07/23 15:19:01;;;;;;;0.20;0.20;;;;;;;;;;4982401;28;20214;-59
2022/07/23 15:21:48;;;;;;;0.22;0.22;;;;;;;;;;4977230;28;20354;-59
2022/07/23 15:24:36;;;;;;;0.30;0.30;;;;;;;;;;4985846;28;20593;-59
2022/07/23 15:27:23;;;;;;;0.30;0.30;;;;;;;;;;4984492;28;20217;-59
2022/07/23 15:30:11;;;;;;;0.98;0.20;;;;;;;;;;4983244;28;20573;-59
2022/07/23 15:32:58;;;;;;;0.28;0.28;;;;;;;;;;4979003;28;20297;-59
2022/07/23 15:35:45;;;;;;;0.20;0.20;;;;;;;;;;4981991;28;20214;-59
2022/07/23 15:38:32;;;;;;;1.15;0.30;;;;;;;;;;4980636;28;20217;-59
2022/07/23 15:41:21;;;;;;;0.35;0.35;;;;;;;;;;4984464;28;20268;-59
2022/07/23 15:44:08;;;;;;;0.30;0.30;;;;;;;;;;4985625;28;20272;-58
2022/07/23 15:46:56;;;;;;;0.20;0.20;;;;;;;;;;4985524;28;20216;-58
2022/07/23 15:49:43;;;;;;;0.30;0.30;;;;;;;;;;4984797;28;20205;-59
2022/07/23 15:52:30;;;;;;;0.45;0.45;;;;;;;;;;4979510;28;20209;-59
2022/07/23 15:55:17;;;;;;;0.20;0.20;;;;;;;;;;4983298;28;20205;-58
2022/07/23 15:58:05;;;;;;;0.30;0.30;;;;;;;;;;4986529;28;20662;-58
2022/07/23 16:00:52;;;;;;;0.30;0.30;;;;;;;;;;4981232;28;20218;-58
2022/07/23 16:03:39;;;;;;;0.30;0.30;;;;;;;;;;4988152;28;20690;-58
2022/07/23 16:06:26;;;;;;;0.28;0.28;;;;;;;;;;4990979;28;20237;-58
2022/07/23 16:09:13;;;;;;;0.22;0.22;;;;;;;;;;4989038;28;20214;-59
2022/07/23 16:12:00;;;;;;;0.30;0.30;;;;;;;;;;4991430;28;20363;-59
2022/07/23 16:14:48;;;;;;;0.85;0.40;;;;;;;;;;4987491;28;20233;-58
2022/07/23 16:17:35;;;;;;;0.30;0.30;;;;;;;;;;4991548;28;20210;-59
2022/07/23 16:20:22;;;;;;;0.20;0.20;;;;;;;;;;4992587;28;20685;-58
2022/07/23 16:23:09;;;;;;;0.40;0.40;;;;;;;;;;4988393;28;20241;-59
2022/07/23 16:25:57;;;;;;;0.20;0.20;;;;;;;;;;4982933;28;20241;-58
2022/07/23 16:28:44;;;;;;;1.40;0.20;;;;;;;;;;4984629;28;20220;-58
2022/07/23 16:31:32;;;;;;;1.98;0.50;;;;;;;;;;4982922;28;20277;-58
2022/07/23 16:34:19;;;;;;;0.30;0.30;;;;;;;;;;4985065;28;20209;-58
2022/07/23 16:37:09;;;;;;;1.45;0.38;;;;;;;;;;4987373;28;20625;-58
2022/07/23 16:39:57;;;;;;;0.35;0.35;;;;;;;;;;4984373;28;20269;-58
2022/07/23 16:42:44;;;;;;;0.30;0.30;;;;;;;;;;4987156;28;20225;-59
2022/07/23 16:45:31;;;;;;;0.50;0.50;;;;;;;;;;4980932;28;20217;-58
2022/07/23 16:48:20;;;;;;;0.30;0.30;;;;;;;;;;4986633;28;20198;-58
2022/07/23 16:51:07;;;;;;;0.50;0.50;;;;;;;;;;4987067;28;20210;-59
2022/07/23 16:53:55;;;;;;;0.38;0.38;;;;;;;;;;4986583;28;20214;-59